Norwegian Gem — C6VG8 — position and weather

sailwx.info

Track history (hours):
 
Tides and Currents Weather Stations Pressure Air Temp Water Temp Dewpoint Dewpoint Depression Visibility Wind Speed Wind Dir Waves Ship Positions

Norwegian Gem (Bahamas)

Last reported at 2018-Sep-18 13:32 UTC. Time now 2018-Sep-19 03:56 UTC.
Position N 46°49' W 071°12'.

; draft 8.7 m.

Type: Ship. MMSI: 309951000.

Date/timePositionNaut miles runAvg speedWind from/ knotsBaromVisibWave heightAir tempDewpointWater temp
2018-Sep-18 13:32N 46°49' W 071°12'0 0.0
2018-Sep-18 13:26N 46°49' W 071°12'0 0.0
2018-Sep-18 12:44N 46°49' W 071°12'0 0.0
2018-Sep-18 12:26N 46°49' W 071°12'0 0.0
2018-Sep-18 10:56N 46°49' W 071°12'0 0.5
2018-Sep-18 10:30N 46°49' W 071°12'  
2018-Sep-13 05:00N 43°36' W 064°48'228 4.5 050 / 81027.210.8
2018-Sep-11 01:48N 42°49' W 069°54'518.9
2018-Sep-11 01:30N 42°46' W 070°00'818.4
2018-Sep-11 01:03N 42°41' W 070°10'118.2
2018-Sep-11 01:00N 42°41' W 070°11'918.5
2018-Sep-11 00:30N 42°37' W 070°22'818.8
2018-Sep-11 00:03N 42°33' W 070°33'118.8
2018-Sep-11 00:00N 42°33' W 070°34'918.8
2018-Sep-10 23:30N 42°27' W 070°44'715.4
2018-Sep-10 23:03N 42°24' W 070°52'112.6
2018-Sep-10 23:00N 42°24' W 070°53'611.7
2018-Sep-10 22:30N 42°20' W 070°59'2 4.7
2018-Sep-10 22:02N 42°21' W 071°02'0 0.1
2018-Sep-10 21:58N 42°21' W 071°02'0 0.0
2018-Sep-10 21:21N 42°21' W 071°02'0 0.0
2018-Sep-10 20:57N 42°21' W 071°02'0 0.0
2018-Sep-10 20:27N 42°21' W 071°02'0 0.0
2018-Sep-10 20:03N 42°21' W 071°02'0 0.0
2018-Sep-10 20:00N 42°21' W 071°02'0 0.0
2018-Sep-10 19:29N 42°21' W 071°02'0 0.0
2018-Sep-10 19:03N 42°21' W 071°02'0 0.0
2018-Sep-10 18:56N 42°21' W 071°02'0 0.0
2018-Sep-10 18:29N 42°21' W 071°02'0 0.0
2018-Sep-10 18:02N 42°21' W 071°02'0 0.0
2018-Sep-10 17:50N 42°21' W 071°02'0 0.0
2018-Sep-10 17:26N 42°21' W 071°02'0 0.0
2018-Sep-10 16:55N 42°21' W 071°02'0 0.0
2018-Sep-10 16:25N 42°21' W 071°02'0 0.0
2018-Sep-10 15:49N 42°21' W 071°02'0 0.0
2018-Sep-10 15:25N 42°21' W 071°02'0 0.0
2018-Sep-10 14:51N 42°21' W 071°02'0 0.0
2018-Sep-10 14:30N 42°21' W 071°02'0 0.0
2018-Sep-10 14:00N 42°21' W 071°02'0 0.0
2018-Sep-10 13:30N 42°21' W 071°02'0 0.0
2018-Sep-10 13:00N 42°21' W 071°02'0 0.0
2018-Sep-10 12:25N 42°21' W 071°02'1 1.8
2018-Sep-10 12:03N 42°21' W 071°01'0 5.8
2018-Sep-10 12:00N 42°21' W 071°01'5 9.3
2018-Sep-10 11:30N 42°22' W 070°55'714.8
2018-Sep-10 11:02N 42°24' W 070°46'128.9
2018-Sep-10 11:00N 42°24' W 070°47'713.6
2018-Sep-10 10:30N 42°22' W 070°38'714.4
2018-Sep-10 10:03N 42°21' W 070°29'114.0
2018-Sep-10 10:00N 42°21' W 070°28'714.2
2018-Sep-10 09:30N 42°20' W 070°19'714.8
2018-Sep-10 09:03N 42°20' W 070°10'114.4
2018-Sep-10 09:00N 42°20' W 070°09'714.4
2018-Sep-10 08:30N 42°18' W 069°59'78 5.4
2018-Sep-09 18:05N 41°29' W 071°20'0 0.1
2018-Sep-09 17:53N 41°29' W 071°20'0 0.0
2018-Sep-09 11:16N 41°29' W 071°20'0 0.1
2018-Sep-09 10:52N 41°29' W 071°20'0 0.1
2018-Sep-09 10:20N 41°29' W 071°20'3 5.4
2018-Sep-09 09:50N 41°27' W 071°23'12211.0
2018-Sep-08 22:44N 40°26' W 073°42'313.4
2018-Sep-08 22:30N 40°26' W 073°46'511.6
2018-Sep-08 22:03N 40°28' W 073°52'114.4
2018-Sep-08 22:00N 40°28' W 073°53'713.5
2018-Sep-08 21:30N 40°32' W 074°01'614.0
2018-Sep-08 21:03N 40°38' W 074°03'113.9
2018-Sep-08 21:00N 40°38' W 074°03'713.3
2018-Sep-08 20:31N 40°45' W 074°01'2 3.3
2018-Sep-08 20:02N 40°46' W 073°60'0 0.0
2018-Sep-08 19:58N 40°46' W 073°60'0 0.0
2018-Sep-08 19:25N 40°46' W 073°60'0 0.0
2018-Sep-08 19:01N 40°46' W 073°60'0 0.0
2018-Sep-08 18:55N 40°46' W 073°60'0 0.0
2018-Sep-08 18:28N 40°46' W 073°60'0 0.0
2018-Sep-08 18:03N 40°46' W 073°60'0 0.0
2018-Sep-08 18:00N 40°46' W 073°60'0 0.0
2018-Sep-08 17:30N 40°46' W 073°60'0 0.0
2018-Sep-08 17:03N 40°46' W 073°60'0 0.0
2018-Sep-08 17:00N 40°46' W 073°60'0 0.0
2018-Sep-08 16:30N 40°46' W 073°60'0 0.0
2018-Sep-08 16:03N 40°46' W 073°60'0 0.0
2018-Sep-08 16:00N 40°46' W 073°60'0 0.0
2018-Sep-08 15:29N 40°46' W 073°60'0 0.0
2018-Sep-08 15:02N 40°46' W 073°60'0 0.0
2018-Sep-08 15:00N 40°46' W 073°60'0 0.0
2018-Sep-08 14:02N 40°46' W 073°60'0 0.0
2018-Sep-08 14:00N 40°46' W 073°60'  
Track history (hours):
 
Tides and Currents Weather Stations Pressure Air Temp Water Temp Dewpoint Dewpoint Depression Visibility Wind Speed Wind Dir Waves Ship Positions

Norwegian Gem (Bahamas)

Last reported at 2018-Sep-18 13:32 UTC. Time now 2018-Sep-19 03:57 UTC.
Position N 46°49' W 071°12'.

; draft 8.7 m.

Type: Ship. MMSI: 309951000.

Date/timePositionNaut miles runAvg speedWind from/ knotsBaromVisibWave heightAir tempDewpointWater temp
2018-Sep-18 13:32N 46°49' W 071°12'0 0.0
2018-Sep-18 13:26N 46°49' W 071°12'0 0.0
2018-Sep-18 12:44N 46°49' W 071°12'0 0.0
2018-Sep-18 12:26N 46°49' W 071°12'0 0.0
2018-Sep-18 10:56N 46°49' W 071°12'0 0.5
2018-Sep-18 10:30N 46°49' W 071°12'  
2018-Sep-13 05:00N 43°36' W 064°48'228 4.5 050 / 81027.210.8
2018-Sep-11 01:48N 42°49' W 069°54'518.9
2018-Sep-11 01:30N 42°46' W 070°00'818.4
2018-Sep-11 01:03N 42°41' W 070°10'118.2
2018-Sep-11 01:00N 42°41' W 070°11'918.5
2018-Sep-11 00:30N 42°37' W 070°22'818.8
2018-Sep-11 00:03N 42°33' W 070°33'118.8
2018-Sep-11 00:00N 42°33' W 070°34'918.8
2018-Sep-10 23:30N 42°27' W 070°44'715.4
2018-Sep-10 23:03N 42°24' W 070°52'112.6
2018-Sep-10 23:00N 42°24' W 070°53'611.7
2018-Sep-10 22:30N 42°20' W 070°59'2 4.7
2018-Sep-10 22:02N 42°21' W 071°02'0 0.1
2018-Sep-10 21:58N 42°21' W 071°02'0 0.0
2018-Sep-10 21:21N 42°21' W 071°02'0 0.0
2018-Sep-10 20:57N 42°21' W 071°02'0 0.0
2018-Sep-10 20:27N 42°21' W 071°02'0 0.0
2018-Sep-10 20:03N 42°21' W 071°02'0 0.0
2018-Sep-10 20:00N 42°21' W 071°02'0 0.0
2018-Sep-10 19:29N 42°21' W 071°02'0 0.0
2018-Sep-10 19:03N 42°21' W 071°02'0 0.0
2018-Sep-10 18:56N 42°21' W 071°02'0 0.0
2018-Sep-10 18:29N 42°21' W 071°02'0 0.0
2018-Sep-10 18:02N 42°21' W 071°02'0 0.0
2018-Sep-10 17:50N 42°21' W 071°02'0 0.0
2018-Sep-10 17:26N 42°21' W 071°02'0 0.0
2018-Sep-10 16:55N 42°21' W 071°02'0 0.0
2018-Sep-10 16:25N 42°21' W 071°02'0 0.0
2018-Sep-10 15:49N 42°21' W 071°02'0 0.0
2018-Sep-10 15:25N 42°21' W 071°02'0 0.0
2018-Sep-10 14:51N 42°21' W 071°02'0 0.0
2018-Sep-10 14:30N 42°21' W 071°02'0 0.0
2018-Sep-10 14:00N 42°21' W 071°02'0 0.0
2018-Sep-10 13:30N 42°21' W 071°02'0 0.0
2018-Sep-10 13:00N 42°21' W 071°02'0 0.0
2018-Sep-10 12:25N 42°21' W 071°02'1 1.8
2018-Sep-10 12:03N 42°21' W 071°01'0 5.8
2018-Sep-10 12:00N 42°21' W 071°01'5 9.3
2018-Sep-10 11:30N 42°22' W 070°55'714.8
2018-Sep-10 11:02N 42°24' W 070°46'128.9
2018-Sep-10 11:00N 42°24' W 070°47'713.6
2018-Sep-10 10:30N 42°22' W 070°38'714.4
2018-Sep-10 10:03N 42°21' W 070°29'114.0
2018-Sep-10 10:00N 42°21' W 070°28'714.2
2018-Sep-10 09:30N 42°20' W 070°19'714.8
2018-Sep-10 09:03N 42°20' W 070°10'114.4
2018-Sep-10 09:00N 42°20' W 070°09'714.4
2018-Sep-10 08:30N 42°18' W 069°59'78 5.4
2018-Sep-09 18:05N 41°29' W 071°20'0 0.1
2018-Sep-09 17:53N 41°29' W 071°20'0 0.0
2018-Sep-09 11:16N 41°29' W 071°20'0 0.1
2018-Sep-09 10:52N 41°29' W 071°20'0 0.1
2018-Sep-09 10:20N 41°29' W 071°20'3 5.4
2018-Sep-09 09:50N 41°27' W 071°23'12211.0
2018-Sep-08 22:44N 40°26' W 073°42'313.4
2018-Sep-08 22:30N 40°26' W 073°46'511.6
2018-Sep-08 22:03N 40°28' W 073°52'114.4
2018-Sep-08 22:00N 40°28' W 073°53'713.5
2018-Sep-08 21:30N 40°32' W 074°01'614.0
2018-Sep-08 21:03N 40°38' W 074°03'113.9
2018-Sep-08 21:00N 40°38' W 074°03'713.3
2018-Sep-08 20:31N 40°45' W 074°01'2 3.3
2018-Sep-08 20:02N 40°46' W 073°60'0 0.0
2018-Sep-08 19:58N 40°46' W 073°60'0 0.0
2018-Sep-08 19:25N 40°46' W 073°60'0 0.0
2018-Sep-08 19:01N 40°46' W 073°60'0 0.0
2018-Sep-08 18:55N 40°46' W 073°60'0 0.0
2018-Sep-08 18:28N 40°46' W 073°60'0 0.0
2018-Sep-08 18:03N 40°46' W 073°60'0 0.0
2018-Sep-08 18:00N 40°46' W 073°60'0 0.0
2018-Sep-08 17:30N 40°46' W 073°60'0 0.0
2018-Sep-08 17:03N 40°46' W 073°60'0 0.0
2018-Sep-08 17:00N 40°46' W 073°60'0 0.0
2018-Sep-08 16:30N 40°46' W 073°60'0 0.0
2018-Sep-08 16:03N 40°46' W 073°60'0 0.0
2018-Sep-08 16:00N 40°46' W 073°60'0 0.0
2018-Sep-08 15:29N 40°46' W 073°60'0 0.0
2018-Sep-08 15:02N 40°46' W 073°60'0 0.0
2018-Sep-08 15:00N 40°46' W 073°60'0 0.0
2018-Sep-08 14:02N 40°46' W 073°60'0 0.0
2018-Sep-08 14:00N 40°46' W 073°60'  

Dump ship's entire track history